sensor_id;sensor_type;location;lat;lon;timestamp;temperature;humidity
53711;DHT22;39605;52.704;6.752;2022-07-18T00:01:07;15.90;99.90
53711;DHT22;39605;52.704;6.752;2022-07-18T00:03:33;15.90;99.90
53711;DHT22;39605;52.704;6.752;2022-07-18T00:05:58;15.80;99.90
53711;DHT22;39605;52.704;6.752;2022-07-18T00:08:24;15.80;99.90
53711;DHT22;39605;52.704;6.752;2022-07-18T00:10:50;15.80;99.90
53711;DHT22;39605;52.704;6.752;2022-07-18T00:13:18;15.80;99.90
53711;DHT22;39605;52.704;6.752;2022-07-18T00:15:44;15.70;99.90
53711;DHT22;39605;52.704;6.752;2022-07-18T00:18:10;15.70;99.90
53711;DHT22;39605;52.704;6.752;2022-07-18T00:20:35;15.70;99.90
53711;DHT22;39605;52.704;6.752;2022-07-18T00:23:01;15.60;99.90
53711;DHT22;39605;52.704;6.752;2022-07-18T00:25:27;15.60;99.90
53711;DHT22;39605;52.704;6.752;2022-07-18T00:27:52;15.70;99.90
53711;DHT22;39605;52.704;6.752;2022-07-18T00:30:18;15.60;99.90
53711;DHT22;39605;52.704;6.752;2022-07-18T00:32:44;15.60;99.90
53711;DHT22;39605;52.704;6.752;2022-07-18T00:35:09;15.60;99.90
53711;DHT22;39605;52.704;6.752;2022-07-18T00:37:35;15.50;99.90
53711;DHT22;39605;52.704;6.752;2022-07-18T00:40:01;15.50;99.90
53711;DHT22;39605;52.704;6.752;2022-07-18T00:42:27;15.40;99.90
53711;DHT22;39605;52.704;6.752;2022-07-18T00:44:55;15.40;99.90
53711;DHT22;39605;52.704;6.752;2022-07-18T00:47:21;15.40;99.90
53711;DHT22;39605;52.704;6.752;2022-07-18T00:49:47;15.40;99.90
53711;DHT22;39605;52.704;6.752;2022-07-18T00:52:13;15.40;99.90
53711;DHT22;39605;52.704;6.752;2022-07-18T00:54:39;15.40;99.90
53711;DHT22;39605;52.704;6.752;2022-07-18T00:57:05;15.40;99.90
53711;DHT22;39605;52.704;6.752;2022-07-18T00:59:31;15.30;99.90
53711;DHT22;39605;52.704;6.752;2022-07-18T01:02:15;15.30;99.90
53711;DHT22;39605;52.704;6.752;2022-07-18T01:04:41;15.30;99.90
53711;DHT22;39605;52.704;6.752;2022-07-18T01:07:07;15.30;99.90
53711;DHT22;39605;52.704;6.752;2022-07-18T01:09:33;15.20;99.90
53711;DHT22;39605;52.704;6.752;2022-07-18T01:12:00;15.20;99.90
53711;DHT22;39605;52.704;6.752;2022-07-18T01:14:26;15.20;99.90
53711;DHT22;39605;52.704;6.752;2022-07-18T01:16:52;15.20;99.90
53711;DHT22;39605;52.704;6.752;2022-07-18T01:19:17;15.10;99.90
53711;DHT22;39605;52.704;6.752;2022-07-18T01:21:43;15.10;99.90
53711;DHT22;39605;52.704;6.752;2022-07-18T01:24:09;15.10;99.90
53711;DHT22;39605;52.704;6.752;2022-07-18T01:26:34;15.00;99.90
53711;DHT22;39605;52.704;6.752;2022-07-18T01:29:02;15.00;99.90
53711;DHT22;39605;52.704;6.752;2022-07-18T01:31:28;15.00;99.90
53711;DHT22;39605;52.704;6.752;2022-07-18T01:33:59;15.00;99.90
53711;DHT22;39605;52.704;6.752;2022-07-18T01:36:24;15.00;99.90
53711;DHT22;39605;52.704;6.752;2022-07-18T01:38:50;15.00;99.90
53711;DHT22;39605;52.704;6.752;2022-07-18T01:41:16;15.00;99.90
53711;DHT22;39605;52.704;6.752;2022-07-18T01:43:42;14.90;99.90
53711;DHT22;39605;52.704;6.752;2022-07-18T01:46:09;14.80;99.90
53711;DHT22;39605;52.704;6.752;2022-07-18T01:48:39;14.90;99.90
53711;DHT22;39605;52.704;6.752;2022-07-18T01:51:06;14.90;99.90
53711;DHT22;39605;52.704;6.752;2022-07-18T01:53:40;14.80;99.90
53711;DHT22;39605;52.704;6.752;2022-07-18T01:56:06;14.80;99.90
53711;DHT22;39605;52.704;6.752;2022-07-18T01:58:32;14.80;99.90
53711;DHT22;39605;52.704;6.752;2022-07-18T02:00:58;14.70;99.90
53711;DHT22;39605;52.704;6.752;2022-07-18T02:03:24;14.70;99.90
53711;DHT22;39605;52.704;6.752;2022-07-18T02:05:49;14.70;99.90
53711;DHT22;39605;52.704;6.752;2022-07-18T02:08:15;14.60;99.90
53711;DHT22;39605;52.704;6.752;2022-07-18T02:10:41;14.60;99.90
53711;DHT22;39605;52.704;6.752;2022-07-18T02:13:06;14.60;99.90
53711;DHT22;39605;52.704;6.752;2022-07-18T02:15:32;14.50;99.90
53711;DHT22;39605;52.704;6.752;2022-07-18T02:17:58;14.50;99.90
53711;DHT22;39605;52.704;6.752;2022-07-18T02:20:24;14.50;99.90
53711;DHT22;39605;52.704;6.752;2022-07-18T02:22:50;14.50;99.90
53711;DHT22;39605;52.704;6.752;2022-07-18T02:25:15;14.50;99.90
53711;DHT22;39605;52.704;6.752;2022-07-18T02:27:41;14.50;99.90
53711;DHT22;39605;52.704;6.752;2022-07-18T02:30:09;14.40;99.90
53711;DHT22;39605;52.704;6.752;2022-07-18T02:32:35;14.40;99.90
53711;DHT22;39605;52.704;6.752;2022-07-18T02:35:06;14.30;99.90
53711;DHT22;39605;52.704;6.752;2022-07-18T02:37:32;14.30;99.90
53711;DHT22;39605;52.704;6.752;2022-07-18T02:39:58;14.30;99.90
53711;DHT22;39605;52.704;6.752;2022-07-18T02:42:24;14.30;99.90
53711;DHT22;39605;52.704;6.752;2022-07-18T02:44:49;14.20;99.90
53711;DHT22;39605;52.704;6.752;2022-07-18T02:47:15;14.20;99.90
53711;DHT22;39605;52.704;6.752;2022-07-18T02:49:40;14.20;99.90
53711;DHT22;39605;52.704;6.752;2022-07-18T02:52:08;14.20;99.90
53711;DHT22;39605;52.704;6.752;2022-07-18T02:54:36;14.10;99.90
53711;DHT22;39605;52.704;6.752;2022-07-18T02:57:01;14.10;99.90
53711;DHT22;39605;52.704;6.752;2022-07-18T02:59:27;14.10;99.90
53711;DHT22;39605;52.704;6.752;2022-07-18T03:01:54;14.00;99.90
53711;DHT22;39605;52.704;6.752;2022-07-18T03:04:21;14.10;99.90
53711;DHT22;39605;52.704;6.752;2022-07-18T03:06:47;14.00;99.90
53711;DHT22;39605;52.704;6.752;2022-07-18T03:09:14;14.00;99.90
53711;DHT22;39605;52.704;6.752;2022-07-18T03:11:40;14.00;99.90
53711;DHT22;39605;52.704;6.752;2022-07-18T03:14:06;14.00;99.90
53711;DHT22;39605;52.704;6.752;2022-07-18T03:16:32;13.90;99.90
53711;DHT22;39605;52.704;6.752;2022-07-18T03:18:57;13.90;99.90
53711;DHT22;39605;52.704;6.752;2022-07-18T03:21:23;13.90;99.90
53711;DHT22;39605;52.704;6.752;2022-07-18T03:23:49;13.90;99.90
53711;DHT22;39605;52.704;6.752;2022-07-18T03:26:15;13.90;99.90
53711;DHT22;39605;52.704;6.752;2022-07-18T03:28:40;13.90;99.90
53711;DHT22;39605;52.704;6.752;2022-07-18T03:31:06;13.90;99.90
53711;DHT22;39605;52.704;6.752;2022-07-18T03:33:32;13.90;99.90
53711;DHT22;39605;52.704;6.752;2022-07-18T03:35:58;13.80;99.90
53711;DHT22;39605;52.704;6.752;2022-07-18T03:38:23;13.80;99.90
53711;DHT22;39605;52.704;6.752;2022-07-18T03:40:49;13.80;99.90
53711;DHT22;39605;52.704;6.752;2022-07-18T03:43:15;13.80;99.90
53711;DHT22;39605;52.704;6.752;2022-07-18T03:45:40;13.80;99.90
53711;DHT22;39605;52.704;6.752;2022-07-18T03:48:06;13.80;99.90
53711;DHT22;39605;52.704;6.752;2022-07-18T03:50:32;13.80;99.90
53711;DHT22;39605;52.704;6.752;2022-07-18T03:52:59;13.80;99.90
53711;DHT22;39605;52.704;6.752;2022-07-18T03:55:25;13.80;99.90
53711;DHT22;39605;52.704;6.752;2022-07-18T03:57:51;13.80;99.90
53711;DHT22;39605;52.704;6.752;2022-07-18T04:00:16;13.80;99.90
53711;DHT22;39605;52.704;6.752;2022-07-18T04:02:43;13.80;99.90
53711;DHT22;39605;52.704;6.752;2022-07-18T04:05:10;13.80;99.90
53711;DHT22;39605;52.704;6.752;2022-07-18T04:07:36;13.90;99.90
53711;DHT22;39605;52.704;6.752;2022-07-18T04:10:03;13.90;99.90
53711;DHT22;39605;52.704;6.752;2022-07-18T04:12:30;14.00;99.90
53711;DHT22;39605;52.704;6.752;2022-07-18T04:14:56;14.00;99.90
53711;DHT22;39605;52.704;6.752;2022-07-18T04:17:22;14.10;99.90
53711;DHT22;39605;52.704;6.752;2022-07-18T04:19:47;14.10;99.90
53711;DHT22;39605;52.704;6.752;2022-07-18T04:22:13;14.10;99.90
53711;DHT22;39605;52.704;6.752;2022-07-18T04:24:39;14.30;99.90
53711;DHT22;39605;52.704;6.752;2022-07-18T04:27:05;14.30;99.90
53711;DHT22;39605;52.704;6.752;2022-07-18T04:29:30;14.20;99.90
53711;DHT22;39605;52.704;6.752;2022-07-18T04:31:58;14.30;99.90
53711;DHT22;39605;52.704;6.752;2022-07-18T04:34:23;14.30;99.90
53711;DHT22;39605;52.704;6.752;2022-07-18T04:36:49;14.30;99.90
53711;DHT22;39605;52.704;6.752;2022-07-18T04:39:15;14.40;99.90
53711;DHT22;39605;52.704;6.752;2022-07-18T04:41:42;14.40;99.90
53711;DHT22;39605;52.704;6.752;2022-07-18T04:44:09;14.40;99.90
53711;DHT22;39605;52.704;6.752;2022-07-18T04:46:34;14.50;99.90
53711;DHT22;39605;52.704;6.752;2022-07-18T04:49:00;14.50;99.90
53711;DHT22;39605;52.704;6.752;2022-07-18T04:51:26;14.50;99.90
53711;DHT22;39605;52.704;6.752;2022-07-18T04:53:51;14.60;99.90
53711;DHT22;39605;52.704;6.752;2022-07-18T04:56:20;14.60;99.90
53711;DHT22;39605;52.704;6.752;2022-07-18T04:58:46;14.70;99.90
53711;DHT22;39605;52.704;6.752;2022-07-18T05:01:11;14.80;99.90
53711;DHT22;39605;52.704;6.752;2022-07-18T05:03:37;14.90;99.90
53711;DHT22;39605;52.704;6.752;2022-07-18T05:06:03;15.00;99.90
53711;DHT22;39605;52.704;6.752;2022-07-18T05:08:28;15.20;99.90
53711;DHT22;39605;52.704;6.752;2022-07-18T05:10:54;15.30;99.90
53711;DHT22;39605;52.704;6.752;2022-07-18T05:13:20;15.40;99.90
53711;DHT22;39605;52.704;6.752;2022-07-18T05:15:46;15.60;99.90
53711;DHT22;39605;52.704;6.752;2022-07-18T05:18:11;15.60;99.90
53711;DHT22;39605;52.704;6.752;2022-07-18T05:20:37;15.60;99.90
53711;DHT22;39605;52.704;6.752;2022-07-18T05:23:03;15.70;99.90
53711;DHT22;39605;52.704;6.752;2022-07-18T05:25:29;15.70;99.90
53711;DHT22;39605;52.704;6.752;2022-07-18T05:27:54;15.70;99.90
53711;DHT22;39605;52.704;6.752;2022-07-18T05:30:21;15.80;99.90
53711;DHT22;39605;52.704;6.752;2022-07-18T05:32:47;15.80;99.90
53711;DHT22;39605;52.704;6.752;2022-07-18T05:35:13;15.80;99.90
53711;DHT22;39605;52.704;6.752;2022-07-18T05:37:39;15.90;99.90
53711;DHT22;39605;52.704;6.752;2022-07-18T05:40:07;16.00;99.90
53711;DHT22;39605;52.704;6.752;2022-07-18T05:42:34;16.10;99.90
53711;DHT22;39605;52.704;6.752;2022-07-18T05:44:59;16.20;99.90
53711;DHT22;39605;52.704;6.752;2022-07-18T05:47:25;16.30;99.90
53711;DHT22;39605;52.704;6.752;2022-07-18T05:49:51;16.30;99.90
53711;DHT22;39605;52.704;6.752;2022-07-18T05:52:16;16.40;99.90
53711;DHT22;39605;52.704;6.752;2022-07-18T05:54:42;16.50;99.90
53711;DHT22;39605;52.704;6.752;2022-07-18T05:57:08;16.60;99.90
53711;DHT22;39605;52.704;6.752;2022-07-18T05:59:34;16.60;99.90
53711;DHT22;39605;52.704;6.752;2022-07-18T06:01:59;16.80;99.90
53711;DHT22;39605;52.704;6.752;2022-07-18T06:04:25;17.00;99.90
53711;DHT22;39605;52.704;6.752;2022-07-18T06:06:51;17.10;99.90
53711;DHT22;39605;52.704;6.752;2022-07-18T06:09:17;17.30;99.90
53711;DHT22;39605;52.704;6.752;2022-07-18T06:11:43;17.40;99.90
53711;DHT22;39605;52.704;6.752;2022-07-18T06:14:09;17.50;99.90
53711;DHT22;39605;52.704;6.752;2022-07-18T06:16:35;17.60;99.90
53711;DHT22;39605;52.704;6.752;2022-07-18T06:19:02;17.70;99.90
53711;DHT22;39605;52.704;6.752;2022-07-18T06:21:28;17.70;99.90
53711;DHT22;39605;52.704;6.752;2022-07-18T06:23:54;17.80;99.90
53711;DHT22;39605;52.704;6.752;2022-07-18T06:26:20;17.80;99.90
53711;DHT22;39605;52.704;6.752;2022-07-18T06:28:45;17.90;99.90
53711;DHT22;39605;52.704;6.752;2022-07-18T06:31:11;18.00;99.90
53711;DHT22;39605;52.704;6.752;2022-07-18T06:33:37;18.00;99.90
53711;DHT22;39605;52.704;6.752;2022-07-18T06:36:04;18.10;99.90
53711;DHT22;39605;52.704;6.752;2022-07-18T06:38:31;18.20;99.90
53711;DHT22;39605;52.704;6.752;2022-07-18T06:40:56;18.30;99.90
53711;DHT22;39605;52.704;6.752;2022-07-18T06:43:22;18.30;99.90
53711;DHT22;39605;52.704;6.752;2022-07-18T06:45:48;18.40;99.90
53711;DHT22;39605;52.704;6.752;2022-07-18T06:48:15;18.60;99.90
53711;DHT22;39605;52.704;6.752;2022-07-18T06:50:41;18.60;99.90
53711;DHT22;39605;52.704;6.752;2022-07-18T06:53:07;18.70;99.90
53711;DHT22;39605;52.704;6.752;2022-07-18T06:55:33;18.80;99.90
53711;DHT22;39605;52.704;6.752;2022-07-18T06:57:58;18.80;99.90
53711;DHT22;39605;52.704;6.752;2022-07-18T07:00:24;18.80;99.90
53711;DHT22;39605;52.704;6.752;2022-07-18T07:02:52;18.90;99.90
53711;DHT22;39605;52.704;6.752;2022-07-18T07:05:19;18.90;99.90
53711;DHT22;39605;52.704;6.752;2022-07-18T07:07:45;19.00;99.90
53711;DHT22;39605;52.704;6.752;2022-07-18T07:10:11;19.10;99.90
53711;DHT22;39605;52.704;6.752;2022-07-18T07:12:48;19.10;99.90
53711;DHT22;39605;52.704;6.752;2022-07-18T07:15:15;19.30;99.90
53711;DHT22;39605;52.704;6.752;2022-07-18T07:17:41;19.50;99.90
53711;DHT22;39605;52.704;6.752;2022-07-18T07:20:07;19.60;99.90
53711;DHT22;39605;52.704;6.752;2022-07-18T07:22:48;19.70;99.90
53711;DHT22;39605;52.704;6.752;2022-07-18T07:25:15;19.90;99.90
53711;DHT22;39605;52.704;6.752;2022-07-18T07:27:42;20.10;99.90
53711;DHT22;39605;52.704;6.752;2022-07-18T07:30:08;20.20;99.90
53711;DHT22;39605;52.704;6.752;2022-07-18T07:32:39;20.30;99.90
53711;DHT22;39605;52.704;6.752;2022-07-18T07:35:06;20.50;99.90
53711;DHT22;39605;52.704;6.752;2022-07-18T07:37:35;20.60;99.90
53711;DHT22;39605;52.704;6.752;2022-07-18T07:40:02;20.80;99.90
53711;DHT22;39605;52.704;6.752;2022-07-18T07:42:27;20.90;99.90
53711;DHT22;39605;52.704;6.752;2022-07-18T07:44:53;21.10;99.90
53711;DHT22;39605;52.704;6.752;2022-07-18T07:47:19;21.20;99.90
53711;DHT22;39605;52.704;6.752;2022-07-18T07:49:44;21.30;99.90
53711;DHT22;39605;52.704;6.752;2022-07-18T07:52:10;21.40;99.90
53711;DHT22;39605;52.704;6.752;2022-07-18T07:54:39;21.60;99.90
53711;DHT22;39605;52.704;6.752;2022-07-18T07:57:05;21.70;99.10
53711;DHT22;39605;52.704;6.752;2022-07-18T07:59:31;21.80;99.40
53711;DHT22;39605;52.704;6.752;2022-07-18T08:01:58;22.00;99.40
53711;DHT22;39605;52.704;6.752;2022-07-18T08:04:24;22.10;99.90
53711;DHT22;39605;52.704;6.752;2022-07-18T08:06:50;22.20;99.60
53711;DHT22;39605;52.704;6.752;2022-07-18T08:09:15;22.30;95.80
53711;DHT22;39605;52.704;6.752;2022-07-18T08:11:41;22.50;98.20
53711;DHT22;39605;52.704;6.752;2022-07-18T08:14:07;22.60;96.40
53711;DHT22;39605;52.704;6.752;2022-07-18T08:16:33;22.70;94.20
53711;DHT22;39605;52.704;6.752;2022-07-18T08:18:58;22.90;97.20
53711;DHT22;39605;52.704;6.752;2022-07-18T08:21:24;23.00;96.60
53711;DHT22;39605;52.704;6.752;2022-07-18T08:23:49;23.10;97.10
53711;DHT22;39605;52.704;6.752;2022-07-18T08:26:15;23.20;93.90
53711;DHT22;39605;52.704;6.752;2022-07-18T08:28:41;23.20;92.30
53711;DHT22;39605;52.704;6.752;2022-07-18T08:31:07;23.40;92.70
53711;DHT22;39605;52.704;6.752;2022-07-18T08:33:33;23.40;93.10
53711;DHT22;39605;52.704;6.752;2022-07-18T08:35:58;23.50;92.00
53711;DHT22;39605;52.704;6.752;2022-07-18T08:38:24;23.50;92.80
53711;DHT22;39605;52.704;6.752;2022-07-18T08:40:52;23.60;91.90
53711;DHT22;39605;52.704;6.752;2022-07-18T08:43:19;23.70;92.80
53711;DHT22;39605;52.704;6.752;2022-07-18T08:45:45;23.70;92.30
53711;DHT22;39605;52.704;6.752;2022-07-18T08:48:16;23.80;92.50
53711;DHT22;39605;52.704;6.752;2022-07-18T08:50:46;23.80;91.80
53711;DHT22;39605;52.704;6.752;2022-07-18T08:53:13;23.80;90.40
53711;DHT22;39605;52.704;6.752;2022-07-18T08:55:39;23.90;91.90
53711;DHT22;39605;52.704;6.752;2022-07-18T08:58:05;24.00;91.80
53711;DHT22;39605;52.704;6.752;2022-07-18T09:00:31;24.10;91.20
53711;DHT22;39605;52.704;6.752;2022-07-18T09:03:02;24.10;88.10
53711;DHT22;39605;52.704;6.752;2022-07-18T09:05:30;24.20;91.30
53711;DHT22;39605;52.704;6.752;2022-07-18T09:08:11;24.20;89.90
53711;DHT22;39605;52.704;6.752;2022-07-18T09:10:48;24.40;89.40
53711;DHT22;39605;52.704;6.752;2022-07-18T09:13:16;24.50;90.30
53711;DHT22;39605;52.704;6.752;2022-07-18T09:16:02;24.70;88.60
53711;DHT22;39605;52.704;6.752;2022-07-18T09:18:33;24.90;89.40
53711;DHT22;39605;52.704;6.752;2022-07-18T09:21:08;25.00;90.50
53711;DHT22;39605;52.704;6.752;2022-07-18T09:23:37;25.20;87.20
53711;DHT22;39605;52.704;6.752;2022-07-18T09:26:03;25.30;85.40
53711;DHT22;39605;52.704;6.752;2022-07-18T09:28:51;25.40;90.10
53711;DHT22;39605;52.704;6.752;2022-07-18T09:31:22;25.60;86.80
53711;DHT22;39605;52.704;6.752;2022-07-18T09:33:57;25.60;84.20
53711;DHT22;39605;52.704;6.752;2022-07-18T09:36:23;25.70;88.40
53711;DHT22;39605;52.704;6.752;2022-07-18T09:38:49;25.80;86.50
53711;DHT22;39605;52.704;6.752;2022-07-18T09:41:15;25.80;85.00
53711;DHT22;39605;52.704;6.752;2022-07-18T09:43:41;26.00;81.00
53711;DHT22;39605;52.704;6.752;2022-07-18T09:46:07;26.10;81.90
53711;DHT22;39605;52.704;6.752;2022-07-18T09:48:34;26.20;81.80
53711;DHT22;39605;52.704;6.752;2022-07-18T09:51:03;26.30;80.10
53711;DHT22;39605;52.704;6.752;2022-07-18T09:53:39;26.40;80.00
53711;DHT22;39605;52.704;6.752;2022-07-18T09:56:11;26.50;81.10
53711;DHT22;39605;52.704;6.752;2022-07-18T09:58:40;26.70;74.50
53711;DHT22;39605;52.704;6.752;2022-07-18T10:01:09;26.70;79.10
53711;DHT22;39605;52.704;6.752;2022-07-18T10:03:36;26.70;72.50
53711;DHT22;39605;52.704;6.752;2022-07-18T10:06:03;26.70;70.50
53711;DHT22;39605;52.704;6.752;2022-07-18T10:08:31;26.80;72.30
53711;DHT22;39605;52.704;6.752;2022-07-18T10:10:58;27.00;71.60
53711;DHT22;39605;52.704;6.752;2022-07-18T10:13:28;27.10;69.00
53711;DHT22;39605;52.704;6.752;2022-07-18T10:15:54;27.30;66.70
53711;DHT22;39605;52.704;6.752;2022-07-18T10:18:22;27.40;68.70
53711;DHT22;39605;52.704;6.752;2022-07-18T10:23:33;27.40;66.30
53711;DHT22;39605;52.704;6.752;2022-07-18T10:26:20;27.50;67.00
53711;DHT22;39605;52.704;6.752;2022-07-18T10:31:32;27.80;68.10
53711;DHT22;39605;52.704;6.752;2022-07-18T10:36:30;27.80;62.80
53711;DHT22;39605;52.704;6.752;2022-07-18T10:47:06;28.00;64.30
53711;DHT22;39605;52.704;6.752;2022-07-18T10:57:36;28.30;57.70
53711;DHT22;39605;52.704;6.752;2022-07-18T11:00:06;28.50;59.10
53711;DHT22;39605;52.704;6.752;2022-07-18T11:02:41;28.60;55.70
53711;DHT22;39605;52.704;6.752;2022-07-18T11:21:18;29.20;56.70
53711;DHT22;39605;52.704;6.752;2022-07-18T11:23:45;29.10;54.40
53711;DHT22;39605;52.704;6.752;2022-07-18T11:26:16;29.10;60.70
53711;DHT22;39605;52.704;6.752;2022-07-18T11:28:42;29.10;55.10
53711;DHT22;39605;52.704;6.752;2022-07-18T11:31:10;29.10;58.10
53711;DHT22;39605;52.704;6.752;2022-07-18T11:33:44;29.20;57.20
53711;DHT22;39605;52.704;6.752;2022-07-18T11:36:15;29.10;56.50
53711;DHT22;39605;52.704;6.752;2022-07-18T11:38:53;29.10;58.40
53711;DHT22;39605;52.704;6.752;2022-07-18T11:41:20;29.10;62.10
53711;DHT22;39605;52.704;6.752;2022-07-18T11:43:48;29.10;54.30
53711;DHT22;39605;52.704;6.752;2022-07-18T11:46:15;29.10;55.90
53711;DHT22;39605;52.704;6.752;2022-07-18T11:48:42;29.20;57.10
53711;DHT22;39605;52.704;6.752;2022-07-18T11:51:09;29.30;55.60
53711;DHT22;39605;52.704;6.752;2022-07-18T11:53:35;29.40;56.30
53711;DHT22;39605;52.704;6.752;2022-07-18T11:56:05;29.40;56.10
53711;DHT22;39605;52.704;6.752;2022-07-18T11:58:36;29.30;56.10
53711;DHT22;39605;52.704;6.752;2022-07-18T12:01:03;29.30;56.00
53711;DHT22;39605;52.704;6.752;2022-07-18T12:03:29;29.30;57.90
53711;DHT22;39605;52.704;6.752;2022-07-18T12:05:54;29.30;57.90
53711;DHT22;39605;52.704;6.752;2022-07-18T12:11:06;29.40;58.00
53711;DHT22;39605;52.704;6.752;2022-07-18T12:16:47;29.90;57.60
53711;DHT22;39605;52.704;6.752;2022-07-18T12:19:21;30.30;61.50
53711;DHT22;39605;52.704;6.752;2022-07-18T12:21:56;30.40;55.50
53711;DHT22;39605;52.704;6.752;2022-07-18T12:24:51;30.60;57.50
53711;DHT22;39605;52.704;6.752;2022-07-18T12:30:06;30.70;52.50
53711;DHT22;39605;52.704;6.752;2022-07-18T12:32:53;30.70;55.70
53711;DHT22;39605;52.704;6.752;2022-07-18T12:35:27;30.60;56.10
53711;DHT22;39605;52.704;6.752;2022-07-18T12:38:02;30.60;53.20
53711;DHT22;39605;52.704;6.752;2022-07-18T12:40:55;30.60;56.60
53711;DHT22;39605;52.704;6.752;2022-07-18T12:43:32;30.80;57.50
53711;DHT22;39605;52.704;6.752;2022-07-18T12:46:00;31.00;57.60
53711;DHT22;39605;52.704;6.752;2022-07-18T12:48:28;31.20;53.20
53711;DHT22;39605;52.704;6.752;2022-07-18T12:51:02;31.30;55.00
53711;DHT22;39605;52.704;6.752;2022-07-18T12:53:30;31.30;54.80
53711;DHT22;39605;52.704;6.752;2022-07-18T12:55:56;31.30;54.40
53711;DHT22;39605;52.704;6.752;2022-07-18T12:58:22;31.30;52.70
53711;DHT22;39605;52.704;6.752;2022-07-18T13:00:48;31.30;55.10
53711;DHT22;39605;52.704;6.752;2022-07-18T13:03:14;31.30;51.20
53711;DHT22;39605;52.704;6.752;2022-07-18T13:05:40;31.20;53.20
53711;DHT22;39605;52.704;6.752;2022-07-18T13:08:06;31.10;52.70
53711;DHT22;39605;52.704;6.752;2022-07-18T13:10:33;31.00;57.20
53711;DHT22;39605;52.704;6.752;2022-07-18T13:13:02;30.80;51.40
53711;DHT22;39605;52.704;6.752;2022-07-18T13:15:28;30.80;52.90
53711;DHT22;39605;52.704;6.752;2022-07-18T13:17:54;30.80;55.60
53711;DHT22;39605;52.704;6.752;2022-07-18T13:20:20;30.70;56.80
53711;DHT22;39605;52.704;6.752;2022-07-18T13:22:46;30.60;54.90
53711;DHT22;39605;52.704;6.752;2022-07-18T13:25:12;30.60;59.40
53711;DHT22;39605;52.704;6.752;2022-07-18T13:27:38;30.60;55.50
53711;DHT22;39605;52.704;6.752;2022-07-18T13:30:05;30.70;55.00
53711;DHT22;39605;52.704;6.752;2022-07-18T13:32:32;30.80;54.20
53711;DHT22;39605;52.704;6.752;2022-07-18T13:34:58;30.90;54.20
53711;DHT22;39605;52.704;6.752;2022-07-18T13:37:24;31.00;56.60
53711;DHT22;39605;52.704;6.752;2022-07-18T13:39:49;31.00;54.50
53711;DHT22;39605;52.704;6.752;2022-07-18T13:42:15;30.90;55.10
53711;DHT22;39605;52.704;6.752;2022-07-18T13:44:41;30.70;56.30
53711;DHT22;39605;52.704;6.752;2022-07-18T13:47:07;30.50;55.60
53711;DHT22;39605;52.704;6.752;2022-07-18T13:49:32;30.30;55.10
53711;DHT22;39605;52.704;6.752;2022-07-18T13:51:58;30.00;55.80
53711;DHT22;39605;52.704;6.752;2022-07-18T13:54:24;29.90;55.00
53711;DHT22;39605;52.704;6.752;2022-07-18T13:56:49;29.70;55.40
53711;DHT22;39605;52.704;6.752;2022-07-18T13:59:15;29.60;55.40
53711;DHT22;39605;52.704;6.752;2022-07-18T14:01:41;29.50;58.60
53711;DHT22;39605;52.704;6.752;2022-07-18T14:04:08;29.40;55.90
53711;DHT22;39605;52.704;6.752;2022-07-18T14:06:33;29.40;58.70
53711;DHT22;39605;52.704;6.752;2022-07-18T14:09:05;29.40;59.00
53711;DHT22;39605;52.704;6.752;2022-07-18T14:11:31;29.50;61.70
53711;DHT22;39605;52.704;6.752;2022-07-18T14:14:01;29.70;58.30
53711;DHT22;39605;52.704;6.752;2022-07-18T14:16:27;29.90;57.90
53711;DHT22;39605;52.704;6.752;2022-07-18T14:18:52;29.90;57.40
53711;DHT22;39605;52.704;6.752;2022-07-18T14:21:18;29.90;55.90
53711;DHT22;39605;52.704;6.752;2022-07-18T14:23:44;29.70;57.70
53711;DHT22;39605;52.704;6.752;2022-07-18T14:26:10;29.60;57.90
53711;DHT22;39605;52.704;6.752;2022-07-18T14:28:35;29.60;56.90
53711;DHT22;39605;52.704;6.752;2022-07-18T14:31:01;29.60;58.20
53711;DHT22;39605;52.704;6.752;2022-07-18T14:33:26;29.70;54.40
53711;DHT22;39605;52.704;6.752;2022-07-18T14:35:52;29.80;54.40
53711;DHT22;39605;52.704;6.752;2022-07-18T14:38:18;29.70;55.20
53711;DHT22;39605;52.704;6.752;2022-07-18T14:40:43;29.60;57.40
53711;DHT22;39605;52.704;6.752;2022-07-18T14:43:09;29.40;58.50
53711;DHT22;39605;52.704;6.752;2022-07-18T14:45:35;29.30;57.40
53711;DHT22;39605;52.704;6.752;2022-07-18T14:48:00;29.30;57.60
53711;DHT22;39605;52.704;6.752;2022-07-18T14:50:26;29.60;60.40
53711;DHT22;39605;52.704;6.752;2022-07-18T14:52:52;29.90;58.80
53711;DHT22;39605;52.704;6.752;2022-07-18T14:55:17;30.20;57.20
53711;DHT22;39605;52.704;6.752;2022-07-18T14:57:43;30.20;57.00
53711;DHT22;39605;52.704;6.752;2022-07-18T15:00:09;30.20;56.60
53711;DHT22;39605;52.704;6.752;2022-07-18T15:02:38;30.20;55.40
53711;DHT22;39605;52.704;6.752;2022-07-18T15:05:04;30.40;54.80
53711;DHT22;39605;52.704;6.752;2022-07-18T15:07:30;30.50;54.60
53711;DHT22;39605;52.704;6.752;2022-07-18T15:09:56;30.60;52.30
53711;DHT22;39605;52.704;6.752;2022-07-18T15:12:21;30.60;51.90
53711;DHT22;39605;52.704;6.752;2022-07-18T15:14:47;30.50;52.30
53711;DHT22;39605;52.704;6.752;2022-07-18T15:17:13;30.20;50.80
53711;DHT22;39605;52.704;6.752;2022-07-18T15:19:38;30.10;50.60
53711;DHT22;39605;52.704;6.752;2022-07-18T15:22:04;30.10;51.40
53711;DHT22;39605;52.704;6.752;2022-07-18T15:24:33;30.20;51.60
53711;DHT22;39605;52.704;6.752;2022-07-18T15:27:00;30.20;52.00
53711;DHT22;39605;52.704;6.752;2022-07-18T15:29:26;30.20;50.70
53711;DHT22;39605;52.704;6.752;2022-07-18T15:31:52;30.30;53.00
53711;DHT22;39605;52.704;6.752;2022-07-18T15:34:18;30.20;53.60
53711;DHT22;39605;52.704;6.752;2022-07-18T15:36:43;30.20;53.00
53711;DHT22;39605;52.704;6.752;2022-07-18T15:39:09;30.10;52.80
53711;DHT22;39605;52.704;6.752;2022-07-18T15:41:35;30.10;54.50
53711;DHT22;39605;52.704;6.752;2022-07-18T15:44:01;30.00;53.30
53711;DHT22;39605;52.704;6.752;2022-07-18T15:46:26;30.00;53.70
53711;DHT22;39605;52.704;6.752;2022-07-18T15:48:52;30.00;52.10
53711;DHT22;39605;52.704;6.752;2022-07-18T15:51:18;29.90;51.70
53711;DHT22;39605;52.704;6.752;2022-07-18T15:53:44;29.90;52.90
53711;DHT22;39605;52.704;6.752;2022-07-18T15:56:09;29.90;54.80
53711;DHT22;39605;52.704;6.752;2022-07-18T15:58:36;29.80;53.00
53711;DHT22;39605;52.704;6.752;2022-07-18T16:01:02;29.80;54.10
53711;DHT22;39605;52.704;6.752;2022-07-18T16:03:28;29.80;53.90
53711;DHT22;39605;52.704;6.752;2022-07-18T16:05:54;29.70;52.10
53711;DHT22;39605;52.704;6.752;2022-07-18T16:08:25;29.70;51.40
53711;DHT22;39605;52.704;6.752;2022-07-18T16:10:53;29.60;51.90
53711;DHT22;39605;52.704;6.752;2022-07-18T16:13:19;29.60;52.10
53711;DHT22;39605;52.704;6.752;2022-07-18T16:15:44;29.60;52.80
53711;DHT22;39605;52.704;6.752;2022-07-18T16:18:11;29.60;52.80